createdAt,value
2019-01-10T00:00:19.225Z,1011.28
2019-01-10T00:01:19.213Z,1011.26
2019-01-10T00:02:19.238Z,1011.28
2019-01-10T00:03:26.225Z,1011.25
2019-01-10T00:04:19.181Z,1011.26
2019-01-10T00:05:19.170Z,1011.34
2019-01-10T00:06:19.163Z,1011.35
2019-01-10T00:07:19.149Z,1011.33
2019-01-10T00:08:19.173Z,1011.31
2019-01-10T00:09:19.127Z,1011.37
2019-01-10T00:10:19.114Z,1011.43
2019-01-10T00:11:19.106Z,1011.39
2019-01-10T00:12:19.095Z,1011.40
2019-01-10T00:13:19.083Z,1011.45
2019-01-10T00:14:19.111Z,1011.41
2019-01-10T00:15:19.066Z,1011.42
2019-01-10T00:16:19.049Z,1011.42
2019-01-10T00:17:19.040Z,1011.43
2019-01-10T00:18:19.039Z,1011.45
2019-01-10T00:19:19.017Z,1011.53
2019-01-10T00:20:19.042Z,1011.43
2019-01-10T00:21:18.997Z,1011.40
2019-01-10T00:22:18.986Z,1011.42
2019-01-10T00:23:18.975Z,1011.43
2019-01-10T00:24:18.963Z,1011.45
2019-01-10T00:25:18.953Z,1011.51
2019-01-10T00:26:18.968Z,1011.46
2019-01-10T00:27:18.931Z,1011.48
2019-01-10T00:28:18.921Z,1011.49
2019-01-10T00:29:18.909Z,1011.57
2019-01-10T00:30:18.900Z,1011.58
2019-01-10T00:31:18.914Z,1011.59
2019-01-10T00:32:18.881Z,1011.57
2019-01-10T00:33:18.865Z,1011.56
2019-01-10T00:34:18.856Z,1011.55
2019-01-10T00:35:18.852Z,1011.56
2019-01-10T00:36:18.857Z,1011.65
2019-01-10T00:37:18.823Z,1011.65
2019-01-10T00:38:18.810Z,1011.62
2019-01-10T00:39:18.801Z,1011.63
2019-01-10T00:40:18.794Z,1011.64
2019-01-10T00:41:18.802Z,1011.67
2019-01-10T00:42:18.767Z,1011.64
2019-01-10T00:43:18.756Z,1011.70
2019-01-10T00:44:18.745Z,1011.71
2019-01-10T00:45:18.733Z,1011.63
2019-01-10T00:46:18.760Z,1011.71
2019-01-10T00:47:18.713Z,1011.66
2019-01-10T00:48:18.700Z,1011.72
2019-01-10T00:49:18.688Z,1011.67
2019-01-10T00:50:18.680Z,1011.68
2019-01-10T00:51:18.672Z,1011.75
2019-01-10T00:52:18.694Z,1011.73
2019-01-10T00:53:18.649Z,1011.73
2019-01-10T00:54:18.633Z,1011.68
2019-01-10T00:55:18.626Z,1011.72
2019-01-10T00:56:18.615Z,1011.74
2019-01-10T00:57:18.603Z,1011.79
2019-01-10T00:58:18.619Z,1011.83
2019-01-10T00:59:18.589Z,1011.83
2019-01-10T01:00:18.570Z,1011.85
2019-01-10T01:01:18.558Z,1011.84
2019-01-10T01:02:18.548Z,1011.84
2019-01-10T01:03:18.669Z,1011.86
2019-01-10T01:04:18.526Z,1011.85
2019-01-10T01:05:18.520Z,1011.85
2019-01-10T01:06:18.505Z,1011.87
2019-01-10T01:07:18.493Z,1011.89
2019-01-10T01:08:18.482Z,1011.91
2019-01-10T01:09:18.495Z,1011.91
2019-01-10T01:10:18.463Z,1011.95
2019-01-10T01:11:18.451Z,1011.91
2019-01-10T01:12:18.439Z,1011.97
2019-01-10T01:13:18.430Z,1012.00
2019-01-10T01:14:18.453Z,1012.01
2019-01-10T01:15:18.405Z,1012.05
2019-01-10T01:16:18.396Z,1012.09
2019-01-10T01:17:18.386Z,1012.02
2019-01-10T01:18:18.374Z,1012.05
2019-01-10T01:19:18.365Z,1012.06
2019-01-10T01:20:18.390Z,1012.05
2019-01-10T01:21:18.340Z,1012.12
2019-01-10T01:22:18.333Z,1012.14
2019-01-10T01:23:18.320Z,1012.18
2019-01-10T01:24:18.309Z,1012.17
2019-01-10T01:25:18.300Z,1012.25
2019-01-10T01:26:18.321Z,1012.23
2019-01-10T01:27:18.276Z,1012.22
2019-01-10T01:28:18.261Z,1012.25
2019-01-10T01:29:18.545Z,1012.26
2019-01-10T01:30:18.241Z,1012.30
2019-01-10T01:31:18.230Z,1012.33
2019-01-10T01:32:18.246Z,1012.29
2019-01-10T01:33:18.208Z,1012.30
2019-01-10T01:34:18.200Z,1012.35
2019-01-10T01:35:18.187Z,1012.33
2019-01-10T01:36:18.177Z,1012.31
2019-01-10T01:37:18.203Z,1012.31
2019-01-10T01:38:18.157Z,1012.34
2019-01-10T01:39:18.144Z,1012.38
2019-01-10T01:40:18.136Z,1012.34
2019-01-10T01:41:18.123Z,1012.42
2019-01-10T01:42:18.112Z,1012.39
2019-01-10T01:43:18.130Z,1012.44
2019-01-10T01:44:18.091Z,1012.48
2019-01-10T01:45:18.078Z,1012.52
2019-01-10T01:46:18.068Z,1012.56
2019-01-10T01:47:18.057Z,1012.59
2019-01-10T01:48:18.083Z,1012.58
2019-01-10T01:49:18.037Z,1012.62
2019-01-10T01:50:18.056Z,1012.65
2019-01-10T01:51:18.017Z,1012.65
2019-01-10T01:52:18.002Z,1012.66
2019-01-10T01:53:17.991Z,1012.72
2019-01-10T01:54:18.008Z,1012.70
2019-01-10T01:55:17.980Z,1012.69
2019-01-10T01:56:17.959Z,1012.72
2019-01-10T01:57:17.949Z,1012.77
2019-01-10T01:58:17.936Z,1012.75
2019-01-10T01:59:17.971Z,1012.75
2019-01-10T02:00:17.921Z,1012.81
2019-01-10T02:01:17.904Z,1012.80
2019-01-10T02:02:17.896Z,1012.83
2019-01-10T02:03:17.885Z,1012.81
2019-01-10T02:04:17.872Z,1012.88
2019-01-10T02:05:17.900Z,1012.90
2019-01-10T02:06:17.850Z,1012.91
2019-01-10T02:07:17.842Z,1012.90
2019-01-10T02:08:17.830Z,1012.90
2019-01-10T02:09:17.818Z,1012.89
2019-01-10T02:10:17.810Z,1012.91
2019-01-10T02:11:17.834Z,1012.95
2019-01-10T02:12:17.788Z,1012.93
2019-01-10T02:13:17.779Z,1012.98
2019-01-10T02:14:17.765Z,1012.99
2019-01-10T02:15:17.762Z,1013.00
2019-01-10T02:16:17.743Z,1012.96
2019-01-10T02:17:17.769Z,1012.98
2019-01-10T02:18:17.725Z,1012.97
2019-01-10T02:19:17.708Z,1012.98
2019-01-10T02:20:17.698Z,1013.07
2019-01-10T02:21:17.687Z,1013.08
2019-01-10T02:22:17.680Z,1013.10
2019-01-10T02:23:17.703Z,1013.06
2019-01-10T02:24:17.655Z,1013.07
2019-01-10T02:25:17.644Z,1013.09
2019-01-10T02:26:17.633Z,1013.08
2019-01-10T02:27:17.623Z,1013.04
2019-01-10T02:28:17.618Z,1013.07
2019-01-10T02:29:17.640Z,1013.09
2019-01-10T02:30:17.596Z,1013.14
2019-01-10T02:31:17.585Z,1013.11
2019-01-10T02:32:17.571Z,1013.12
2019-01-10T02:33:17.558Z,1013.10
2019-01-10T02:34:17.548Z,1013.12
2019-01-10T02:35:17.593Z,1013.17
2019-01-10T02:36:17.530Z,1013.18
2019-01-10T02:37:17.609Z,1013.16
2019-01-10T02:38:17.505Z,1013.16
2019-01-10T02:39:17.496Z,1013.18
2019-01-10T02:40:17.486Z,1013.18
2019-01-10T02:41:17.513Z,1013.21
2019-01-10T02:42:17.462Z,1013.23
2019-01-10T02:43:26.145Z,1013.26
2019-01-10T02:44:18.441Z,1013.22
2019-01-10T02:45:17.435Z,1013.30
2019-01-10T02:46:17.418Z,1013.28
2019-01-10T02:47:17.448Z,1013.28
2019-01-10T02:48:19.524Z,1013.28
2019-01-10T02:49:17.385Z,1013.28
2019-01-10T02:50:17.375Z,1013.27
2019-01-10T02:51:17.364Z,1013.32
2019-01-10T02:52:17.355Z,1013.29
2019-01-10T02:53:17.367Z,1013.32
2019-01-10T02:54:17.335Z,1013.32
2019-01-10T02:55:17.321Z,1013.42
2019-01-10T02:56:17.314Z,1013.39
2019-01-10T02:57:17.323Z,1013.41
2019-01-10T02:58:17.290Z,1013.36
2019-01-10T02:59:17.281Z,1013.38
2019-01-10T03:00:17.267Z,1013.39
2019-01-10T03:01:17.256Z,1013.40
2019-01-10T03:02:17.284Z,1013.29
2019-01-10T03:03:17.239Z,1013.34
2019-01-10T03:04:17.352Z,1013.35
2019-01-10T03:05:17.218Z,1013.39
2019-01-10T03:06:17.204Z,1013.40
2019-01-10T03:07:17.194Z,1013.37
2019-01-10T03:08:17.205Z,1013.30
2019-01-10T03:09:17.169Z,1013.41
2019-01-10T03:10:17.159Z,1013.38
2019-01-10T03:11:17.146Z,1013.39
2019-01-10T03:12:17.136Z,1013.33
2019-01-10T03:13:17.154Z,1013.35
2019-01-10T03:14:17.115Z,1013.40
2019-01-10T03:15:17.104Z,1013.42
2019-01-10T03:16:17.095Z,1013.44
2019-01-10T03:17:17.232Z,1013.43
2019-01-10T03:18:17.106Z,1013.46
2019-01-10T03:19:17.062Z,1013.48
2019-01-10T03:20:17.065Z,1013.47
2019-01-10T03:21:17.041Z,1013.46
2019-01-10T03:22:17.031Z,1013.44
2019-01-10T03:23:17.045Z,1013.38
2019-01-10T03:24:17.011Z,1013.51
2019-01-10T03:25:17.002Z,1013.46
2019-01-10T03:26:16.990Z,1013.43
2019-01-10T03:27:16.975Z,1013.40
2019-01-10T03:28:17.004Z,1013.48
2019-01-10T03:29:16.953Z,1013.43
2019-01-10T03:30:16.944Z,1013.44
2019-01-10T03:31:16.934Z,1013.50
2019-01-10T03:32:16.923Z,1013.49
2019-01-10T03:33:16.912Z,1013.47
2019-01-10T03:34:16.941Z,1013.47
2019-01-10T03:35:16.887Z,1013.47
2019-01-10T03:36:16.877Z,1013.43
2019-01-10T03:37:16.878Z,1013.46
2019-01-10T03:38:16.857Z,1013.48
2019-01-10T03:39:16.850Z,1013.52
2019-01-10T03:40:16.873Z,1013.47
2019-01-10T03:41:16.824Z,1013.52
2019-01-10T03:42:16.812Z,1013.52
2019-01-10T03:43:16.806Z,1013.55
2019-01-10T03:44:16.791Z,1013.59
2019-01-10T03:45:16.783Z,1013.58
2019-01-10T03:46:16.812Z,1013.57
2019-01-10T03:47:16.760Z,1013.50
2019-01-10T03:48:16.749Z,1013.55
2019-01-10T03:49:16.738Z,1013.57
2019-01-10T03:50:16.728Z,1013.63
2019-01-10T03:51:16.837Z,1013.61
2019-01-10T03:52:16.750Z,1013.58
2019-01-10T03:53:16.696Z,1013.60
2019-01-10T03:54:16.682Z,1013.55
2019-01-10T03:55:16.671Z,1013.61
2019-01-10T03:56:16.666Z,1013.59
2019-01-10T03:57:16.650Z,1013.59
2019-01-10T03:58:16.688Z,1013.67
2019-01-10T03:59:16.629Z,1013.62
2019-01-10T04:00:16.622Z,1013.62
2019-01-10T04:01:16.610Z,1013.62
2019-01-10T04:02:16.600Z,1013.67
2019-01-10T04:03:16.595Z,1013.70
2019-01-10T04:04:16.603Z,1013.69
2019-01-10T04:05:16.576Z,1013.66
2019-01-10T04:06:16.572Z,1013.66
2019-01-10T04:07:16.543Z,1013.68
2019-01-10T04:08:16.534Z,1013.64
2019-01-10T04:09:16.556Z,1013.70
2019-01-10T04:10:16.575Z,1013.66
2019-01-10T04:11:16.499Z,1013.71
2019-01-10T04:12:16.490Z,1013.69
2019-01-10T04:13:16.478Z,1013.72
2019-01-10T04:14:16.468Z,1013.67
2019-01-10T04:15:16.493Z,1013.69
2019-01-10T04:16:16.444Z,1013.77
2019-01-10T04:17:16.436Z,1013.74
2019-01-10T04:18:16.423Z,1013.76
2019-01-10T04:19:16.412Z,1013.78
2019-01-10T04:20:16.404Z,1013.74
2019-01-10T04:21:17.544Z,1013.81
2019-01-10T04:22:16.380Z,1013.80
2019-01-10T04:23:16.368Z,1013.80
2019-01-10T04:24:16.357Z,1013.80
2019-01-10T04:25:16.347Z,1013.84
2019-01-10T04:26:16.375Z,1013.85
2019-01-10T04:27:16.325Z,1013.83
2019-01-10T04:28:16.328Z,1013.89
2019-01-10T04:29:16.304Z,1013.86
2019-01-10T04:30:16.307Z,1013.85
2019-01-10T04:31:16.282Z,1013.88
2019-01-10T04:32:16.310Z,1013.85
2019-01-10T04:33:16.260Z,1013.91
2019-01-10T04:34:16.248Z,1013.88
2019-01-10T04:35:16.241Z,1013.88
2019-01-10T04:36:16.229Z,1013.90
2019-01-10T04:37:16.218Z,1013.91
2019-01-10T04:38:16.243Z,1013.96
2019-01-10T04:39:16.197Z,1013.94
2019-01-10T04:40:16.187Z,1013.96
2019-01-10T04:41:16.191Z,1013.97
2019-01-10T04:42:16.169Z,1013.92
2019-01-10T04:43:16.235Z,1013.99
2019-01-10T04:44:16.170Z,1014.04
2019-01-10T04:45:16.132Z,1013.95
2019-01-10T04:46:16.118Z,1013.99
2019-01-10T04:47:16.109Z,1014.03
2019-01-10T04:48:16.099Z,1014.00
2019-01-10T04:49:16.124Z,1014.03
2019-01-10T04:50:16.077Z,1014.03
2019-01-10T04:51:16.065Z,1014.06
2019-01-10T04:52:16.054Z,1014.04
2019-01-10T04:53:16.052Z,1014.03
2019-01-10T04:54:16.032Z,1014.10
2019-01-10T04:55:16.058Z,1014.07
2019-01-10T04:56:16.011Z,1014.12
2019-01-10T04:57:16.010Z,1014.12
2019-01-10T04:58:15.991Z,1014.11
2019-01-10T04:59:15.979Z,1014.14
2019-01-10T05:00:15.968Z,1014.14
2019-01-10T05:01:15.982Z,1014.16
2019-01-10T05:02:18.487Z,1014.13
2019-01-10T05:03:15.940Z,1014.15
2019-01-10T05:04:15.924Z,1014.16
2019-01-10T05:05:15.913Z,1014.17
2019-01-10T05:06:15.946Z,1014.19
2019-01-10T05:07:15.891Z,1014.18
2019-01-10T05:08:15.882Z,1014.16
2019-01-10T05:09:15.871Z,1014.23
2019-01-10T05:10:15.861Z,1014.24
2019-01-10T05:11:15.905Z,1014.20
2019-01-10T05:12:15.863Z,1014.18
2019-01-10T05:13:15.829Z,1014.24
2019-01-10T05:14:16.599Z,1014.29
2019-01-10T05:15:15.808Z,1014.23
2019-01-10T05:16:15.792Z,1014.25
2019-01-10T05:17:15.826Z,1014.27
2019-01-10T05:18:15.773Z,1014.26
2019-01-10T05:19:15.763Z,1014.28
2019-01-10T05:20:15.751Z,1014.32
2019-01-10T05:21:15.744Z,1014.32
2019-01-10T05:22:15.732Z,1014.37
2019-01-10T05:23:15.769Z,1014.36
2019-01-10T05:24:15.707Z,1014.38
2019-01-10T05:25:15.699Z,1014.37
2019-01-10T05:26:15.685Z,1014.37
2019-01-10T05:27:15.673Z,1014.43
2019-01-10T05:28:15.663Z,1014.42
2019-01-10T05:29:15.679Z,1014.47
2019-01-10T05:30:15.644Z,1014.46
2019-01-10T05:31:15.630Z,1014.50
2019-01-10T05:32:15.621Z,1014.53
2019-01-10T05:33:15.609Z,1014.55
2019-01-10T05:34:15.595Z,1014.54
2019-01-10T05:35:15.622Z,1014.53
2019-01-10T05:36:15.574Z,1014.55
2019-01-10T05:37:15.565Z,1014.58
2019-01-10T05:38:15.554Z,1014.55
2019-01-10T05:39:15.542Z,1014.58
2019-01-10T05:40:15.531Z,1014.56
2019-01-10T05:41:15.544Z,1014.55
2019-01-10T05:42:15.509Z,1014.61
2019-01-10T05:43:15.499Z,1014.63
2019-01-10T05:44:15.487Z,1014.67
2019-01-10T05:45:15.477Z,1014.64
2019-01-10T05:46:15.501Z,1014.69
2019-01-10T05:47:15.453Z,1014.69
2019-01-10T05:48:15.441Z,1014.65
2019-01-10T05:49:15.432Z,1014.66
2019-01-10T05:50:17.691Z,1014.65
2019-01-10T05:51:15.414Z,1014.69
2019-01-10T05:52:15.424Z,1014.67
2019-01-10T05:53:15.396Z,1014.63
2019-01-10T05:54:15.377Z,1014.62
2019-01-10T05:55:15.365Z,1014.69
2019-01-10T05:56:15.884Z,1014.69
2019-01-10T05:57:15.380Z,1014.68
2019-01-10T05:58:15.419Z,1014.76
2019-01-10T05:59:15.322Z,1014.76
2019-01-10T06:00:15.311Z,1014.73
2019-01-10T06:01:15.300Z,1014.81
2019-01-10T06:02:15.292Z,1014.78
2019-01-10T06:03:22.337Z,1014.81
2019-01-10T06:04:15.266Z,1014.85
2019-01-10T06:05:15.257Z,1014.85
2019-01-10T06:06:15.246Z,1014.84
2019-01-10T06:07:15.232Z,1014.89
2019-01-10T06:08:15.258Z,1014.85
2019-01-10T06:09:15.214Z,1014.88
2019-01-10T06:10:15.200Z,1014.87
2019-01-10T06:11:15.189Z,1014.85
2019-01-10T06:12:15.181Z,1014.90
2019-01-10T06:13:15.166Z,1014.89
2019-01-10T06:14:15.181Z,1015.00
2019-01-10T06:15:15.146Z,1015.05
2019-01-10T06:16:15.136Z,1015.05
2019-01-10T06:17:15.123Z,1015.02
2019-01-10T06:18:15.113Z,1015.06
2019-01-10T06:19:15.139Z,1015.14
2019-01-10T06:20:15.091Z,1015.13
2019-01-10T06:21:15.079Z,1015.16
2019-01-10T06:22:15.068Z,1015.18
2019-01-10T06:23:15.057Z,1015.15
2019-01-10T06:24:15.045Z,1015.21
2019-01-10T06:25:15.073Z,1015.22
2019-01-10T06:26:15.024Z,1015.21
2019-01-10T06:27:15.012Z,1015.24
2019-01-10T06:28:15.002Z,1015.28
2019-01-10T06:29:14.991Z,1015.23
2019-01-10T06:30:14.981Z,1015.28
2019-01-10T06:31:14.995Z,1015.32
2019-01-10T06:32:14.956Z,1015.28
2019-01-10T06:33:14.947Z,1015.30
2019-01-10T06:34:14.937Z,1015.30
2019-01-10T06:35:14.925Z,1015.28
2019-01-10T06:36:14.949Z,1015.33
2019-01-10T06:37:14.905Z,1015.32
2019-01-10T06:38:14.894Z,1015.34
2019-01-10T06:39:14.881Z,1015.35
2019-01-10T06:40:14.874Z,1015.35
2019-01-10T06:41:16.904Z,1015.36
2019-01-10T06:42:14.871Z,1015.32
2019-01-10T06:43:14.836Z,1015.34
2019-01-10T06:44:14.831Z,1015.46
2019-01-10T06:45:14.812Z,1015.34
2019-01-10T06:46:14.804Z,1015.40
2019-01-10T06:47:14.830Z,1015.43
2019-01-10T06:48:14.782Z,1015.45
2019-01-10T06:49:14.770Z,1015.44
2019-01-10T06:50:14.761Z,1015.48
2019-01-10T06:51:14.748Z,1015.51
2019-01-10T06:52:14.737Z,1015.53
2019-01-10T06:53:14.752Z,1015.55
2019-01-10T06:54:14.716Z,1015.52
2019-01-10T06:55:14.708Z,1015.61
2019-01-10T06:56:14.693Z,1015.57
2019-01-10T06:57:14.682Z,1015.57
2019-01-10T06:58:14.707Z,1015.59
2019-01-10T06:59:14.660Z,1015.63
2019-01-10T07:00:14.649Z,1015.60
2019-01-10T07:01:14.637Z,1015.61
2019-01-10T07:02:14.627Z,1015.64
2019-01-10T07:03:14.617Z,1015.64
2019-01-10T07:04:14.630Z,1015.66
2019-01-10T07:05:14.597Z,1015.65
2019-01-10T07:06:14.583Z,1015.65
2019-01-10T07:07:14.573Z,1015.69
2019-01-10T07:08:14.563Z,1015.72
2019-01-10T07:09:14.591Z,1015.72
2019-01-10T07:10:14.542Z,1015.71
2019-01-10T07:11:14.532Z,1015.76
2019-01-10T07:12:14.523Z,1015.77
2019-01-10T07:13:14.508Z,1015.78
2019-01-10T07:14:14.496Z,1015.73
2019-01-10T07:15:14.522Z,1015.74
2019-01-10T07:16:14.481Z,1015.74
2019-01-10T07:17:15.941Z,1015.75
2019-01-10T07:18:14.454Z,1015.84
2019-01-10T07:19:14.442Z,1015.81
2019-01-10T07:20:14.432Z,1015.89
2019-01-10T07:21:14.446Z,1015.92
2019-01-10T07:22:14.410Z,1015.90
2019-01-10T07:23:14.401Z,1015.93
2019-01-10T07:24:14.389Z,1015.87
2019-01-10T07:25:14.397Z,1015.94
2019-01-10T07:26:14.405Z,1015.95
2019-01-10T07:27:14.353Z,1015.85
2019-01-10T07:28:14.349Z,1015.86
2019-01-10T07:29:14.334Z,1015.88
2019-01-10T07:30:14.321Z,1015.89
2019-01-10T07:31:14.310Z,1015.94
2019-01-10T07:32:14.323Z,1015.91
2019-01-10T07:33:14.292Z,1015.92
2019-01-10T07:34:14.279Z,1015.95
2019-01-10T07:35:14.271Z,1015.99
2019-01-10T07:36:14.263Z,1015.99
2019-01-10T07:37:14.291Z,1016.02
2019-01-10T07:38:14.237Z,1015.98
2019-01-10T07:39:14.225Z,1016.01
2019-01-10T07:40:14.218Z,1016.03
2019-01-10T07:41:14.206Z,1016.03
2019-01-10T07:42:14.195Z,1016.05
2019-01-10T07:43:14.209Z,1016.02
2019-01-10T07:44:14.171Z,1016.06
2019-01-10T07:45:14.161Z,1016.09
2019-01-10T07:46:14.165Z,1016.06
2019-01-10T07:47:14.139Z,1016.09
2019-01-10T07:48:14.166Z,1016.15
2019-01-10T07:49:14.118Z,1016.16
2019-01-10T07:50:14.107Z,1016.12
2019-01-10T07:51:14.098Z,1016.15
2019-01-10T07:52:14.086Z,1016.13
2019-01-10T07:53:14.075Z,1016.18
2019-01-10T07:54:14.088Z,1016.18
2019-01-10T07:55:14.053Z,1016.17
2019-01-10T07:56:14.041Z,1016.21
2019-01-10T07:57:14.032Z,1016.21
2019-01-10T07:58:14.020Z,1016.16
2019-01-10T07:59:14.010Z,1016.16
2019-01-10T08:00:14.036Z,1016.20
2019-01-10T08:01:13.987Z,1016.22
2019-01-10T08:02:13.977Z,1016.25
2019-01-10T08:03:13.967Z,1016.27
2019-01-10T08:04:13.955Z,1016.34
2019-01-10T08:05:13.945Z,1016.36
2019-01-10T08:06:13.960Z,1016.35
2019-01-10T08:07:13.923Z,1016.43
2019-01-10T08:08:14.354Z,1016.35
2019-01-10T08:09:13.906Z,1016.38
2019-01-10T08:10:13.895Z,1016.36
2019-01-10T08:11:13.918Z,1016.30
2019-01-10T08:12:13.870Z,1016.40
2019-01-10T08:13:13.863Z,1016.44
2019-01-10T08:14:13.859Z,1016.40
2019-01-10T08:15:13.837Z,1016.45
2019-01-10T08:16:13.829Z,1016.45
2019-01-10T08:17:16.089Z,1016.49
2019-01-10T08:18:13.806Z,1016.46
2019-01-10T08:19:13.796Z,1016.42
2019-01-10T08:20:13.849Z,1016.51
2019-01-10T08:21:13.774Z,1016.54
2019-01-10T08:22:13.800Z,1016.51
2019-01-10T08:23:13.757Z,1016.54
2019-01-10T08:24:13.741Z,1016.63
2019-01-10T08:25:13.732Z,1016.58
2019-01-10T08:26:13.719Z,1016.60
2019-01-10T08:27:13.711Z,1016.66
2019-01-10T08:28:13.721Z,1016.66
2019-01-10T08:29:13.686Z,1016.65
2019-01-10T08:30:13.675Z,1016.63
2019-01-10T08:31:13.664Z,1016.63
2019-01-10T08:32:13.655Z,1016.64
2019-01-10T08:33:13.681Z,1016.66
2019-01-10T08:34:13.633Z,1016.67
2019-01-10T08:35:13.621Z,1016.71
2019-01-10T08:36:13.610Z,1016.70
2019-01-10T08:37:13.598Z,1016.74
2019-01-10T08:38:13.591Z,1016.68
2019-01-10T08:39:13.603Z,1016.80
2019-01-10T08:40:13.564Z,1016.73
2019-01-10T08:41:13.925Z,1016.75
2019-01-10T08:42:13.549Z,1016.76
2019-01-10T08:43:13.531Z,1016.86
2019-01-10T08:44:13.558Z,1016.72
2019-01-10T08:45:21.339Z,1016.73
2019-01-10T08:46:14.497Z,1016.75
2019-01-10T08:47:13.492Z,1016.76
2019-01-10T08:48:14.894Z,1016.80
2019-01-10T08:49:13.464Z,1016.86
2019-01-10T08:50:13.491Z,1016.84
2019-01-10T08:51:13.445Z,1016.88
2019-01-10T08:52:13.433Z,1016.87
2019-01-10T08:53:13.422Z,1016.85
2019-01-10T08:54:13.411Z,1016.88
2019-01-10T08:55:13.402Z,1016.89
2019-01-10T08:56:13.414Z,1016.89
2019-01-10T08:57:13.377Z,1016.93
2019-01-10T08:58:13.367Z,1016.94
2019-01-10T08:59:13.356Z,1016.92
2019-01-10T09:00:13.348Z,1016.96
2019-01-10T09:01:13.372Z,1016.96
2019-01-10T09:02:13.324Z,1016.98
2019-01-10T09:03:13.311Z,1016.94
2019-01-10T09:04:13.302Z,1016.94
2019-01-10T09:05:13.315Z,1016.97
2019-01-10T09:06:13.279Z,1016.94
2019-01-10T09:07:13.294Z,1017.02
2019-01-10T09:08:13.256Z,1016.96
2019-01-10T09:09:13.245Z,1017.02
2019-01-10T09:10:13.235Z,1017.03
2019-01-10T09:11:13.223Z,1017.06
2019-01-10T09:12:13.248Z,1017.06
2019-01-10T09:13:13.203Z,1017.07
2019-01-10T09:14:13.189Z,1017.12
2019-01-10T09:15:13.178Z,1017.12
2019-01-10T09:16:13.170Z,1017.11
2019-01-10T09:17:13.157Z,1017.11
2019-01-10T09:18:13.176Z,1017.09
2019-01-10T09:19:13.136Z,1017.07
2019-01-10T09:20:13.125Z,1017.08
2019-01-10T09:21:13.115Z,1017.12
2019-01-10T09:22:13.103Z,1017.08
2019-01-10T09:23:13.130Z,1017.10
2019-01-10T09:24:13.081Z,1017.09
2019-01-10T09:25:13.074Z,1017.11
2019-01-10T09:26:13.059Z,1017.12
2019-01-10T09:27:13.048Z,1017.09
2019-01-10T09:28:13.037Z,1017.10
2019-01-10T09:29:13.050Z,1017.10
2019-01-10T09:30:13.014Z,1017.07
2019-01-10T09:31:13.003Z,1017.19
2019-01-10T09:32:12.994Z,1017.19
2019-01-10T09:33:12.984Z,1017.17
2019-01-10T09:34:13.007Z,1017.14
2019-01-10T09:35:12.961Z,1017.20
2019-01-10T09:36:12.951Z,1017.24
2019-01-10T09:37:12.937Z,1017.23
2019-01-10T09:38:12.927Z,1017.19
2019-01-10T09:39:12.915Z,1017.22
2019-01-10T09:40:12.941Z,1017.30
2019-01-10T09:41:12.895Z,1017.26
2019-01-10T09:42:12.886Z,1017.28
2019-01-10T09:43:12.871Z,1017.29
2019-01-10T09:44:12.861Z,1017.34
2019-01-10T09:45:12.854Z,1017.32
2019-01-10T09:46:12.872Z,1017.30
2019-01-10T09:47:12.838Z,1017.25
2019-01-10T09:48:12.818Z,1017.33
2019-01-10T09:49:14.950Z,1017.32
2019-01-10T09:50:12.799Z,1017.37
2019-01-10T09:51:12.822Z,1017.38
2019-01-10T09:52:12.774Z,1017.42
2019-01-10T09:53:12.770Z,1017.41
2019-01-10T09:54:12.758Z,1017.48
2019-01-10T09:55:12.742Z,1017.41
2019-01-10T09:56:12.731Z,1017.47
2019-01-10T09:57:12.758Z,1017.46
2019-01-10T09:58:12.710Z,1017.43
2019-01-10T09:59:12.699Z,1017.42
2019-01-10T10:00:12.695Z,1017.45
2019-01-10T10:01:12.678Z,1017.50
2019-01-10T10:02:12.667Z,1017.45
2019-01-10T10:03:12.685Z,1017.50
2019-01-10T10:04:12.648Z,1017.52
2019-01-10T10:05:12.634Z,1017.51
2019-01-10T10:06:12.626Z,1017.55
2019-01-10T10:07:12.613Z,1017.55
2019-01-10T10:08:12.643Z,1017.51
2019-01-10T10:09:12.590Z,1017.52
2019-01-10T10:10:12.582Z,1017.53
2019-01-10T10:11:12.569Z,1017.59
2019-01-10T10:12:12.559Z,1017.59
2019-01-10T10:13:12.547Z,1017.54
2019-01-10T10:14:12.561Z,1017.49
2019-01-10T10:15:12.525Z,1017.49
2019-01-10T10:16:12.516Z,1017.51
2019-01-10T10:17:12.524Z,1017.50
2019-01-10T10:18:12.495Z,1017.52
2019-01-10T10:19:12.532Z,1017.55
2019-01-10T10:20:12.485Z,1017.56
2019-01-10T10:21:12.461Z,1017.55
2019-01-10T10:22:12.450Z,1017.55
2019-01-10T10:23:12.441Z,1017.57
2019-01-10T10:24:12.435Z,1017.61
2019-01-10T10:25:12.453Z,1017.59
2019-01-10T10:26:12.411Z,1017.59
2019-01-10T10:27:12.395Z,1017.60
2019-01-10T10:28:12.388Z,1017.62
2019-01-10T10:29:12.376Z,1017.60
2019-01-10T10:30:12.364Z,1017.61
2019-01-10T10:31:12.380Z,1017.61
2019-01-10T10:32:12.344Z,1017.65
2019-01-10T10:33:12.333Z,1017.60
2019-01-10T10:34:12.336Z,1017.57
2019-01-10T10:35:12.310Z,1017.58
2019-01-10T10:36:12.325Z,1017.59
2019-01-10T10:37:12.292Z,1017.58
2019-01-10T10:38:12.278Z,1017.55
2019-01-10T10:39:12.266Z,1017.57
2019-01-10T10:40:12.257Z,1017.57
2019-01-10T10:41:12.284Z,1017.60
2019-01-10T10:42:12.235Z,1017.55
2019-01-10T10:43:12.230Z,1017.55
2019-01-10T10:44:12.216Z,1017.53
2019-01-10T10:45:12.202Z,1017.52
2019-01-10T10:46:12.193Z,1017.54
2019-01-10T10:47:12.219Z,1017.47
2019-01-10T10:48:13.652Z,1017.47
2019-01-10T10:49:12.162Z,1017.49
2019-01-10T10:50:12.149Z,1017.46
2019-01-10T10:51:12.138Z,1017.49
2019-01-10T10:52:12.563Z,1017.46
2019-01-10T10:53:12.151Z,1017.46
2019-01-10T10:54:12.105Z,1017.44
2019-01-10T10:55:12.095Z,1017.41
2019-01-10T10:56:12.084Z,1017.45
2019-01-10T10:57:12.074Z,1017.40
2019-01-10T10:58:12.099Z,1017.43
2019-01-10T10:59:12.053Z,1017.40
2019-01-10T11:00:12.040Z,1017.42
2019-01-10T11:01:12.030Z,1017.40
2019-01-10T11:02:12.019Z,1017.39
2019-01-10T11:03:12.012Z,1017.41
2019-01-10T11:04:12.021Z,1017.39
2019-01-10T11:05:11.984Z,1017.40
2019-01-10T11:06:11.974Z,1017.29
2019-01-10T11:07:11.966Z,1017.31
2019-01-10T11:08:11.954Z,1017.28
2019-01-10T11:09:11.982Z,1017.33
2019-01-10T11:10:11.935Z,1017.36
2019-01-10T11:11:11.921Z,1017.33
2019-01-10T11:12:11.911Z,1017.34
2019-01-10T11:13:11.902Z,1017.32
2019-01-10T11:14:11.888Z,1017.32
2019-01-10T11:15:11.921Z,1017.35
2019-01-10T11:16:11.873Z,1017.28
2019-01-10T11:17:11.858Z,1017.37
2019-01-10T11:18:11.849Z,1017.38
2019-01-10T11:19:11.837Z,1017.30
2019-01-10T11:20:11.827Z,1017.33
2019-01-10T11:21:11.840Z,1017.31
2019-01-10T11:22:11.804Z,1017.33
2019-01-10T11:23:11.794Z,1017.30
2019-01-10T11:24:11.784Z,1017.31
2019-01-10T11:25:11.769Z,1017.32
2019-01-10T11:26:11.784Z,1017.26
2019-01-10T11:27:11.749Z,1017.27
2019-01-10T11:28:11.739Z,1017.23
2019-01-10T11:29:11.728Z,1017.26
2019-01-10T11:30:11.717Z,1017.32
2019-01-10T11:31:11.742Z,1017.28
2019-01-10T11:32:13.354Z,1017.27
2019-01-10T11:33:11.684Z,1017.26
2019-01-10T11:34:11.673Z,1017.16
2019-01-10T11:35:11.660Z,1017.21
2019-01-10T11:36:11.650Z,1017.17
2019-01-10T11:37:11.677Z,1017.20
2019-01-10T11:38:11.630Z,1017.18
2019-01-10T11:39:11.618Z,1017.14
2019-01-10T11:40:11.607Z,1017.17
2019-01-10T11:41:11.596Z,1017.20
2019-01-10T11:42:11.586Z,1017.22
2019-01-10T11:43:11.598Z,1017.24
2019-01-10T11:44:11.565Z,1017.23
2019-01-10T11:45:11.552Z,1017.18
2019-01-10T11:46:19.456Z,1017.21
2019-01-10T11:47:12.529Z,1017.17
2019-01-10T11:48:11.547Z,1017.22
2019-01-10T11:49:11.510Z,1017.23
2019-01-10T11:50:11.499Z,1017.21
2019-01-10T11:51:11.487Z,1017.22
2019-01-10T11:52:11.483Z,1017.20
2019-01-10T11:53:11.503Z,1017.18
2019-01-10T11:54:11.454Z,1017.22
2019-01-10T11:55:11.444Z,1017.13
2019-01-10T11:56:11.434Z,1017.12
2019-01-10T11:57:11.420Z,1017.09
2019-01-10T11:58:11.409Z,1017.05
2019-01-10T11:59:11.441Z,1017.11
2019-01-10T12:00:11.391Z,1017.15
2019-01-10T12:01:11.511Z,1017.17
2019-01-10T12:02:11.368Z,1017.06
2019-01-10T12:03:11.356Z,1017.08
2019-01-10T12:04:18.412Z,1017.14
2019-01-10T12:05:11.340Z,1017.11